首页
METAR-TAF:

METAR-TAF

机场 :

Trang, 泰国

纬度: 07-31N, 经度: 099-37E, 海拔: 14米

当前天气观测

该预报发布于22分钟前的13:00 UTC
风速2节,风向多变
温度 26°C
湿度 94%
气压 1009 hPa
能见度10公里或以上
少量云层高于3000英尺

METAR: VTST 171300Z VRB02KT 9999 FEW030 26/25 Q1009 NOSIG

时间: 20:22 (13:22 UTC)

预报

该预报发布于2小时和22分钟前的11:00 UTC
预报有效从17日的 12点(UTC)到 18日的 12点(UTC)
风速5节,风向西转西南
能见度10公里或以上
散云层高于3000英尺
短暂存在
从 18日的 04点(UTC)到 18日的 12点(UTC)
少量云层高于1800英尺, 积雨云.
散云层高于2000英尺
多云层高于10000英尺
雷暴, 小雨,

TAF: VTST 171100Z 1712/1812 24005KT 9999 SCT030 TEMPO 1804/1812 -TSRA FEW018CB SCT020 BKN100

超过4000个机场的气象观测和天气预报(METAR&TAF报告)。

可查询的气象台以黄色和红色小点在地图上表示。

将鼠标移到小点上方,可查看气象台名称。

然后点击查看天气观测和预报。

如需切换地图:点击带黑十字的绿色按钮放大地图;点击带横线的绿色按钮缩小地图;或者点击绿色箭头查看邻近地区的地图。


METAR-TAF: